New York, NY

10:41 AM EST on December 25, 2014 (GMT -0500)
La Guardia | Change Station
CLOSE
Current Station
Airport
Location: New York,
Elevation: 30 ft
Nearby Weather Stations

Elev 30 ft 40.78 °N, 73.88 °W | Updated 50 minutes ago

Overcast
Overcast
50 °F
Feels Like 50 °F
N
22
Wind Variable Wind from WNW
Gusts 31 mph

Today
High -- | Low -- °F
--% Chance of Precip.
Yesterday
High -- | Low -- °F
Precip. -- in
7:18 AM 4:33 PM
Waxing Crescent, 17% visible
Pressure 29.72 in
Visibility 10.0 miles
Clouds Few 3600 ft
Scattered Clouds 4300 ft
Mostly Cloudy 9500 ft
Mostly Cloudy 14000 ft
Mostly Cloudy 20000 ft
Dew Point 34 °F
Humidity 54%
Rainfall 0.07 in
Snow Depth Not available.
UV 1 out of 12
Pollen .10 out of 12
Air Quality Not available.
Flu Activity Not available.
METAR KLGA 251451Z 29019G27KT 10SM FEW036 SCT043 BKN095 BKN140 BKN200 10/01 A2972 RMK AO2 PK WND 30027/1449 SLP063 60000 T01000011 53029

More Conditions Fewer Conditions

Pressure 29.72 in
Visibility 10.0 miles
Clouds Few 3600 ft
Scattered Clouds 4300 ft
Mostly Cloudy 9500 ft
Mostly Cloudy 14000 ft
Mostly Cloudy 20000 ft
Dew Point 34 °F
Humidity 54%
Rainfall 0.07 in
Snow Depth Not available.
UV 1 out of 12
Pollen .10 out of 12
Air Quality Not available.
Flu Activity Not available.
METAR KLGA 251451Z 29019G27KT 10SM FEW036 SCT043 BKN095 BKN140 BKN200 10/01 A2972 RMK AO2 PK WND 30027/1449 SLP063 60000 T01000011 53029

More Conditions Fewer Conditions

10-Day Weather Forecast

Almanac

Astronomy

Dec. 25, 2014 Rise Set
Actual Time
Civil Twilight
Nautical Twilight
Astronomical Twilight
Moon
Length of Visible Light
Length of Day
Tomorrow will be .
, % of the Moon is Illuminated

Today's Extremes

State Highs State Lows

Community

WunderPhotos

Upload Photos

1,780,315 photos uploaded!

WunderBlogs® & News

Nearby

Air Quality

  Air Quality AQ Index Pollutant
Not available.

Snow Depth

Station Depth Elevation

Earthquake Activity

City Distance Mag. Time & Date
Minimum magnitude displayed is 2.5.

Coastal Water Temperatures

Place Temperature

Nearby Weather Stations